Time;durP1;ratioP1;P1;durP2;ratioP2;P2;SDS_P1;SDS_P2;PMS_P1;PMS_P2;Temp;Humidity;BMP_temperature;BMP_pressure;BME280_temperature;BME280_humidity;BME280_pressure;Samples;Min_cycle;Max_cycle;Signal;HPM_P1;HPM_P2
2022/04/22 00:09:21;;;;;;;12.93;5.57;;;;;;;5.87;100.00;100498.13;31375315;28;20060;-71
2022/04/22 00:24:23;;;;;;;13.00;6.30;;;;;;;5.81;100.00;100505.00;31382594;28;20049;-72
2022/04/22 00:39:25;;;;;;;11.17;6.17;;;;;;;5.66;100.00;100509.56;31361137;28;20049;-71
2022/04/22 00:54:27;;;;;;;10.83;5.57;;;;;;;5.49;100.00;100507.47;31374658;28;20055;-72
2022/04/22 01:09:49;;;;;;;11.07;5.43;;;;;;;5.41;100.00;100509.38;31371628;28;20047;-71
2022/04/22 01:24:53;;;;;;;10.60;5.83;;;;;;;5.26;100.00;100509.59;31365934;28;20508;-71
2022/04/22 01:39:55;;;;;;;10.87;6.60;;;;;;;5.25;100.00;100505.38;31366077;28;20045;-72
2022/04/22 01:54:57;;;;;;;11.80;6.70;;;;;;;5.00;100.00;100519.38;31346458;28;20049;-70
2022/04/22 02:09:59;;;;;;;14.03;6.77;;;;;;;4.71;100.00;100522.94;31347183;28;20508;-70
2022/04/22 02:25:01;;;;;;;14.77;7.27;;;;;;;4.54;100.00;100536.94;31342569;28;20051;-71
2022/04/22 02:40:03;;;;;;;17.90;8.70;;;;;;;4.36;100.00;100536.72;31344603;28;20053;-71
2022/04/22 02:55:06;;;;;;;16.40;8.47;;;;;;;4.31;100.00;100545.88;31352907;28;20064;-72
2022/04/22 03:10:08;;;;;;;17.43;8.87;;;;;;;4.45;100.00;100550.69;31361934;28;20053;-70
2022/04/22 03:25:09;;;;;;;20.17;8.83;;;;;;;4.92;100.00;100563.50;31362629;28;20052;-72
2022/04/22 03:40:11;;;;;;;16.53;8.63;;;;;;;5.57;100.00;100576.41;31349080;28;20056;-71
2022/04/22 03:55:13;;;;;;;20.33;11.17;;;;;;;6.22;100.00;100583.03;31355343;28;20389;-70
2022/04/22 04:25:36;;;;;;;18.70;9.87;;;;;;;7.22;100.00;100587.66;31379383;28;20048;-71
2022/04/22 04:40:38;;;;;;;16.27;9.03;;;;;;;7.95;100.00;100588.06;31362939;28;20049;-71
2022/04/22 04:55:40;;;;;;;18.40;9.33;;;;;;;8.68;100.00;100609.94;31354113;28;20068;-71
2022/04/22 05:10:43;;;;;;;16.00;9.40;;;;;;;9.42;100.00;100610.72;31366515;28;20055;-70
2022/04/22 05:25:45;;;;;;;19.27;10.30;;;;;;;9.35;100.00;100632.44;31357920;28;20048;-71
2022/04/22 05:40:48;;;;;;;15.63;10.07;;;;;;;10.52;97.66;100645.78;31353564;28;20400;-72
2022/04/22 05:55:50;;;;;;;16.50;9.93;;;;;;;11.05;93.69;100636.25;31360055;28;20056;-71
2022/04/22 06:10:52;;;;;;;24.20;11.17;;;;;;;11.24;90.66;100646.47;31352844;28;20053;-71
2022/04/22 06:25:54;;;;;;;21.33;12.23;;;;;;;12.20;83.64;100638.78;31392087;28;20541;-70
2022/04/22 06:56:23;;;;;;;17.07;9.90;;;;;;;13.49;76.42;100643.94;31375997;28;20049;-70
2022/04/22 07:11:27;;;;;;;17.70;10.13;;;;;;;14.02;73.26;100646.59;31343682;28;20053;-70
2022/04/22 07:26:32;;;;;;;13.90;9.63;;;;;;;14.56;71.16;100658.44;31352032;28;20048;-70
2022/04/22 07:41:38;;;;;;;12.50;7.33;;;;;;;14.21;69.24;100656.63;31389537;28;20081;-74
2022/04/22 07:56:41;;;;;;;9.87;7.33;;;;;;;13.95;71.28;100661.94;31361141;28;20057;-73
2022/04/22 08:11:44;;;;;;;10.37;7.27;;;;;;;14.95;69.46;100665.53;31363419;28;20487;-74
2022/04/22 08:26:46;;;;;;;9.10;6.83;;;;;;;15.73;65.75;100650.72;31358662;28;20481;-73
2022/04/22 08:41:56;;;;;;;8.70;6.17;;;;;;;16.57;58.14;100647.06;31352772;28;20049;-74
2022/04/22 08:57:19;;;;;;;10.07;6.00;;;;;;;16.83;58.09;100655.94;31370254;28;20060;-74
2022/04/22 09:12:24;;;;;;;11.37;6.43;;;;;;;17.50;54.81;100649.09;31366089;28;20052;-72
2022/04/22 09:27:39;;;;;;;9.82;5.10;;;;;;;18.49;47.11;100656.00;31376530;28;20040;-69
2022/04/22 09:42:43;;;;;;;11.50;6.17;;;;;;;18.80;47.23;100646.81;31363865;28;20056;-69
2022/04/22 09:57:58;;;;;;;8.13;4.85;;;;;;;18.77;45.31;100642.25;31350487;28;20052;-76
2022/04/22 10:13:03;;;;;;;6.40;4.50;;;;;;;18.26;47.18;100660.13;31365841;28;20138;-69
2022/04/22 10:28:10;;;;;;;8.45;5.45;;;;;;;17.72;46.98;100666.28;31356479;28;20040;-71
2022/04/22 10:43:12;;;;;;;8.82;5.60;;;;;;;19.12;47.78;100665.41;31354402;28;20082;-70
2022/04/22 10:58:14;;;;;;;8.00;5.90;;;;;;;19.39;43.32;100648.75;31340228;28;20046;-70
2022/04/22 11:13:34;;;;;;;10.13;7.20;;;;;;;20.06;41.88;100650.25;31345121;28;20429;-70
2022/04/22 11:28:40;;;;;;;9.50;5.90;;;;;;;20.23;41.67;100641.56;31374795;28;20044;-70
2022/04/22 11:43:43;;;;;;;10.52;6.15;;;;;;;18.60;45.14;100623.34;31356849;28;20057;-69
2022/04/22 11:58:45;;;;;;;11.77;6.70;;;;;;;16.79;49.47;100621.66;31390727;28;20056;-69
2022/04/22 12:13:48;;;;;;;15.00;8.10;;;;;;;15.38;53.61;100625.22;31377223;28;20832;-69
2022/04/22 12:28:57;;;;;;;12.97;7.30;;;;;;;14.76;60.24;100627.47;31366016;28;20048;-68
2022/04/22 12:43:59;;;;;;;12.17;7.43;;;;;;;15.24;58.99;100610.78;31324332;28;20072;-70
2022/04/22 12:59:03;;;;;;;15.23;8.57;;;;;;;15.66;56.27;100618.88;31346290;28;20324;-68
2022/04/22 13:14:06;;;;;;;10.07;5.80;;;;;;;15.75;54.15;100616.25;31359538;28;20049;-68
2022/04/22 13:29:08;;;;;;;7.77;5.33;;;;;;;15.37;53.22;100613.50;31342234;28;20041;-71
2022/04/22 13:44:10;;;;;;;9.10;5.97;;;;;;;15.02;54.23;100601.69;31343772;28;20486;-69
2022/04/22 13:59:12;;;;;;;19.53;7.33;;;;;;;15.03;54.83;100600.50;31339087;28;20392;-69
2022/04/22 14:14:14;;;;;;;11.17;6.43;;;;;;;14.84;55.77;100577.63;31337072;28;20052;-69
2022/04/22 14:29:15;;;;;;;7.73;4.30;;;;;;;14.76;52.64;100586.47;31355254;28;20052;-76
2022/04/22 14:44:18;;;;;;;7.50;5.43;;;;;;;14.68;52.11;100574.97;31352554;28;20057;-76
2022/04/22 14:59:20;;;;;;;9.03;5.37;;;;;;;14.24;53.77;100579.31;31356581;28;20428;-68
2022/04/22 15:14:22;;;;;;;7.23;5.43;;;;;;;14.00;55.30;100576.03;31349702;28;20053;-70
2022/04/22 15:29:28;;;;;;;10.97;5.57;;;;;;;13.83;56.33;100561.66;31336291;28;20389;-69
2022/04/22 15:44:33;;;;;;;9.00;5.40;;;;;;;13.72;57.03;100563.88;31325888;28;20400;-68
2022/04/22 15:59:35;;;;;;;8.90;5.60;;;;;;;13.43;57.71;100554.91;31344771;28;20456;-70
2022/04/22 16:29:59;;;;;;;11.23;6.50;;;;;;;12.99;61.44;100554.31;31348793;28;20059;-68
2022/04/22 16:45:01;;;;;;;8.70;6.10;;;;;;;12.81;63.47;100551.19;31385851;28;20075;-70
2022/04/22 17:00:04;;;;;;;8.30;6.03;;;;;;;12.64;64.80;100564.78;31377877;28;20045;-69
2022/04/22 17:30:28;;;;;;;10.27;6.77;;;;;;;12.21;66.25;100555.94;31381288;28;20048;-74
2022/04/22 17:45:30;;;;;;;10.37;7.00;;;;;;;11.98;64.51;100554.03;31348765;28;20385;-71
2022/04/22 18:00:33;;;;;;;11.83;6.37;;;;;;;11.93;64.22;100552.56;31341149;28;20056;-71
2022/04/22 18:30:56;;;;;;;8.50;5.63;;;;;;;11.66;60.37;100572.81;31339029;28;20053;-71
2022/04/22 18:45:58;;;;;;;7.17;5.33;;;;;;;11.40;60.48;100586.03;31332739;28;20452;-71
2022/04/22 19:01:02;;;;;;;10.93;6.80;;;;;;;11.21;61.87;100563.03;31334714;28;20045;-70
2022/04/22 19:16:07;;;;;;;12.50;7.80;;;;;;;10.78;72.13;100560.16;31334402;28;20053;-70
2022/04/22 19:31:10;;;;;;;15.17;8.80;;;;;;;10.27;80.83;100576.66;31356659;28;20045;-71
2022/04/22 19:46:12;;;;;;;11.17;6.90;;;;;;;9.81;86.20;100556.94;31384345;28;20076;-73
2022/04/22 20:01:15;;;;;;;10.53;7.63;;;;;;;9.41;92.26;100568.53;31350874;28;20104;-70
2022/04/22 20:16:18;;;;;;;15.60;8.50;;;;;;;9.06;96.47;100567.59;31350779;28;20057;-69
2022/04/22 20:31:20;;;;;;;10.30;6.30;;;;;;;8.87;99.90;100559.97;31343349;28;20053;-70
2022/04/22 20:46:24;;;;;;;14.73;6.67;;;;;;;8.61;100.00;100565.88;31344966;28;20056;-70
2022/04/22 21:01:26;;;;;;;13.60;7.33;;;;;;;8.36;100.00;100558.63;31345866;28;20056;-71
2022/04/22 21:16:29;;;;;;;13.73;7.57;;;;;;;8.24;100.00;100553.63;31338772;28;20064;-71
2022/04/22 21:31:32;;;;;;;13.17;7.27;;;;;;;8.26;100.00;100551.31;31398177;28;20049;-70
2022/04/22 21:46:34;;;;;;;11.03;6.53;;;;;;;8.29;100.00;100514.56;31353635;28;20076;-70
2022/04/22 22:01:37;;;;;;;16.17;7.17;;;;;;;8.27;100.00;100512.25;31358320;28;20041;-71
2022/04/22 22:16:39;;;;;;;13.53;6.37;;;;;;;8.04;100.00;100514.66;31349380;28;20501;-70
2022/04/22 22:31:41;;;;;;;11.70;6.53;;;;;;;7.83;100.00;100510.84;31338864;28;20049;-70
2022/04/22 22:46:43;;;;;;;11.37;6.80;;;;;;;7.76;100.00;100516.28;31354389;28;20060;-70
2022/04/22 23:01:45;;;;;;;10.13;6.53;;;;;;;7.85;100.00;100499.63;31354598;28;20055;-70
2022/04/22 23:16:47;;;;;;;10.03;6.50;;;;;;;7.84;100.00;100506.97;31336277;28;20064;-70
2022/04/22 23:31:49;;;;;;;8.73;5.40;;;;;;;7.72;100.00;100510.09;31332801;28;20127;-70
2022/04/22 23:46:51;;;;;;;10.30;5.97;;;;;;;7.69;100.00;100489.25;31339038;28;20067;-70
